Tulsa, OK

8:45 AM CST on January 31, 2015 (GMT -0600)
Tulsa International | Change Station
CLOSE
Current Station
Airport
Location: Tulsa,
Elevation: 676 ft
Nearby Weather Stations

Elev 676 ft 36.20 °N, 95.89 °W | Updated 52 minutes ago

Overcast
Overcast
44 °F
Feels Like 38 °F
N
12
Wind Variable Wind from South

Today
High -- | Low -- °F
--% Chance of Precip.
Yesterday
High -- | Low -- °F
Precip. -- in
7:25 AM 5:48 PM
Waxing Gibbous, 90% visible
Pressure 30.22 in
Visibility 10.0 miles
Clouds Overcast 12000 ft
Windchill 38 °F
Dew Point 30 °F
Humidity 58%
Rainfall 0.00 in
Snow Depth Not available.
UV 0 out of 12
Pollen 1.50 out of 12
Air Quality Not available.
Flu Activity Not available.
METAR KTUL 311353Z 17010KT 10SM OVC120 07/M01 A3022 RMK AO2 SLP234 T00671011

More Conditions Fewer Conditions

Pressure 30.22 in
Visibility 10.0 miles
Clouds Overcast 12000 ft
Windchill 38 °F
Dew Point 30 °F
Humidity 58%
Rainfall 0.00 in
Snow Depth Not available.
UV 0 out of 12
Pollen 1.50 out of 12
Air Quality Not available.
Flu Activity Not available.
METAR KTUL 311353Z 17010KT 10SM OVC120 07/M01 A3022 RMK AO2 SLP234 T00671011

More Conditions Fewer Conditions

Nowcast | as of 8:05 am CST on January 31, 2015

At 8:00 am... National Weather Service Doppler radar indicated an area of light rain moving to the northeast across parts of northeast Oklahoma. Most affected were locations to the west of Highway 75 and along and north of Highway 412. Through 9:30 am... light rain is expected to persist mostly to the west of Highway 75... while slowly advancing eastward. Light average hourly rainfall rates of several hundredth of an inch... are anticipated.

×

10-Day Weather Forecast

Almanac

Astronomy

Jan. 31, 2015 Rise Set
Actual Time
Civil Twilight
Nautical Twilight
Astronomical Twilight
Moon
Length of Visible Light
Length of Day
Tomorrow will be .
, % of the Moon is Illuminated

Today's Extremes

State Highs State Lows

Community

WunderPhotos

Upload Photos

1,792,064 photos uploaded!

WunderBlogs® & News

Nearby

Air Quality

  Air Quality AQ Index Pollutant
Not available.

Snow Depth

Station Depth Elevation

Earthquake Activity

City Distance Mag. Time & Date
Minimum magnitude displayed is 2.5.

Coastal Water Temperatures

Place Temperature

Nearby Weather Stations